Altoona Blair County Airport

Current Flights

Info
Name: Altoona Blair County Airport
Identifier:  AOO/KAOO
Local Time:  18. Jun 12:37
City
Flights per Day
10 flights
Distance: 175km (109mi)
Punctuality
90% (1 flights per day delayed)
Delay Average: 2 minutes
Current Weather
 24 C (Humidity: 69%)
  11kt (20km/h / 12mph) from 310°
  Scattered clouds at 2,000 feet (609 meter)
  Scattered clouds at 2,700 feet (822 meter)
  16km (10 mi.)
 METAR KAOO 181624Z AUTO 31011KT 10SM SCT020 SCT027 24/18 A2996 RMK AO2 T02390178

Current Delays

Departures
N/A
Arrivals
N/A

Destinations

Top Destinations
Airport Flights
per week
Seats
per week
  Pittsburgh (PIT) 36 - 5 0
  Baltimore (BWI) 12 - 1 0
  Burlington (QQY) 3 - 0 0
  Southern Pines (SOP) 0 - 0 0
  Latrobe (LBE) 0 - 0 0
  Atlantic City (BLM) 0 - 0 0
  Williamsport (IPT) 0 - 0 0
  Washington (IAD) 0 - 0 0
  Boca Raton (BCT) 0 - 0 0
  Winston-Salem (INT) 0 - 0 0
  Manassas (MNZ) 0 - 0 0
  Ocean City (OCE) 0 - 0 0
  Greensboro (GSO) 0 - 0 0

Airlines & Planes

Top Airlines
Airline Flights
per Day
Seats
per Day
Southern Airways Express 7 -
Jet Charter Inc ( Franklin Lakes Nj ) 0 -
  National Airlines 0 -
  Flybe Nordic 0 -
  Nolinor Aviation 0 -
  Novair 0 -
Top Plane Types
Model Flights Seats
Cessna C208 7.1/day - 0
Cessna C525 0.1/day - 0
Beech B200 Super King Air 0.1/day - 0
Cessna C56X 0.1/day - 0
Cessna C172 0.1/day - 0
Cirrus SR22 0.0/day - 0
Beech B300 Super King Air 350 0.0/day - 0
Piper PA-46-350P Malibu Mirage 0.0/day - 0